Time;durP1;ratioP1;P1;durP2;ratioP2;P2;SDS_P1;SDS_P2;PMS_P1;PMS_P2;Temp;Humidity;BMP_temperature;BMP_pressure;BME280_temperature;BME280_humidity;BME280_pressure;Samples;Min_cycle;Max_cycle;Signal;HPM_P1;HPM_P2
2022/04/09 00:01:18;;;;;;;0.30;0.30;;;2.60;99.90;;;;;;5047915;28;20201;-66
2022/04/09 00:03:45;;;;;;;0.20;0.20;;;2.60;99.90;;;;;;5042472;28;20288;-66
2022/04/09 00:06:12;;;;;;;0.50;0.50;;;2.60;99.90;;;;;;5048111;28;20210;-68
2022/04/09 00:08:38;;;;;;;0.20;0.20;;;2.70;99.90;;;;;;5045304;28;20292;-68
2022/04/09 00:11:08;;;;;;;0.33;0.33;;;2.70;99.90;;;;;;5037362;28;20735;-67
2022/04/09 00:13:36;;;;;;;0.20;0.20;;;2.70;99.90;;;;;;5040609;28;20197;-67
2022/04/09 00:16:03;;;;;;;0.30;0.30;;;2.70;99.90;;;;;;5049060;28;20207;-67
2022/04/09 00:18:30;;;;;;;0.30;0.30;;;2.70;99.90;;;;;;5049070;28;20291;-67
2022/04/09 00:20:56;;;;;;;0.30;0.30;;;2.70;99.90;;;;;;5051599;28;20291;-72
2022/04/09 00:23:24;;;;;;;0.32;0.32;;;2.80;99.90;;;;;;5051476;28;20224;-68
2022/04/09 00:25:51;;;;;;;0.30;0.30;;;2.80;99.90;;;;;;5048710;28;20242;-67
2022/04/09 00:28:19;;;;;;;0.20;0.20;;;2.90;99.90;;;;;;5051341;28;20231;-66
2022/04/09 00:30:46;;;;;;;0.20;0.20;;;2.90;99.90;;;;;;5038201;28;20224;-66
2022/04/09 00:33:13;;;;;;;0.20;0.20;;;3.00;99.90;;;;;;5045145;28;20195;-66
2022/04/09 00:35:40;;;;;;;0.10;0.10;;;2.90;99.90;;;;;;5052720;28;20573;-68
2022/04/09 00:38:07;;;;;;;0.30;0.30;;;3.00;99.90;;;;;;5052808;28;20239;-67
2022/04/09 00:40:34;;;;;;;0.20;0.20;;;3.00;99.90;;;;;;5053197;28;20328;-68
2022/04/09 00:43:01;;;;;;;0.20;0.20;;;3.00;99.90;;;;;;5053099;28;20211;-66
2022/04/09 00:45:29;;;;;;;0.20;0.20;;;3.10;99.90;;;;;;5051850;28;20315;-68
2022/04/09 00:47:56;;;;;;;0.20;0.20;;;3.20;99.90;;;;;;5054758;28;20616;-68
2022/04/09 00:50:23;;;;;;;0.17;0.17;;;3.20;99.90;;;;;;5055348;28;20212;-67
2022/04/09 00:52:51;;;;;;;0.30;0.30;;;3.40;99.90;;;;;;5054209;28;20215;-67
2022/04/09 00:56:12;;;;;;;0.20;0.20;;;3.40;99.90;;;;;;5040110;28;20252;-67
2022/04/09 00:58:13;;;;;;;0.23;0.23;;;3.50;99.90;;;;;;5043334;28;20213;-66
2022/04/09 01:00:42;;;;;;;0.30;0.30;;;3.50;99.90;;;;;;5037674;28;20208;-67
2022/04/09 01:03:12;;;;;;;0.20;0.20;;;3.60;99.90;;;;;;5053631;28;20232;-69
2022/04/09 01:05:40;;;;;;;0.20;0.20;;;3.60;99.90;;;;;;5054187;28;20228;-71
2022/04/09 01:08:08;;;;;;;0.20;0.20;;;3.60;99.90;;;;;;5067055;28;20241;-67
2022/04/09 01:10:35;;;;;;;0.10;0.10;;;3.60;99.90;;;;;;5069432;28;20234;-65
2022/04/09 01:13:02;;;;;;;0.20;0.20;;;3.60;99.90;;;;;;5041948;28;20226;-66
2022/04/09 01:15:29;;;;;;;0.20;0.20;;;3.70;99.90;;;;;;5035131;28;20304;-68
2022/04/09 01:18:00;;;;;;;0.17;0.17;;;3.70;99.90;;;;;;5032239;28;20679;-67
2022/04/09 01:20:29;;;;;;;0.20;0.20;;;3.80;99.90;;;;;;5032303;28;20247;-68
2022/04/09 01:22:57;;;;;;;0.10;0.10;;;4.00;99.90;;;;;;5031558;28;20204;-67
2022/04/09 01:25:24;;;;;;;0.20;0.20;;;4.10;99.90;;;;;;5031610;28;20311;-68
2022/04/09 01:27:51;;;;;;;0.87;0.17;;;4.10;99.90;;;;;;5029906;28;20682;-67
2022/04/09 01:30:19;;;;;;;0.20;0.20;;;4.10;99.90;;;;;;5051608;28;20206;-67
2022/04/09 01:32:46;;;;;;;0.27;0.27;;;4.10;99.90;;;;;;5051507;28;20206;-67
2022/04/09 01:35:13;;;;;;;0.20;0.20;;;4.10;99.90;;;;;;5042172;28;20259;-68
2022/04/09 01:37:40;;;;;;;0.20;0.20;;;4.10;99.90;;;;;;5050410;28;20302;-66
2022/04/09 01:40:10;;;;;;;0.10;0.10;;;4.20;99.90;;;;;;5042944;28;20196;-67
2022/04/09 01:42:37;;;;;;;0.20;0.20;;;4.10;99.90;;;;;;5050640;28;20509;-66
2022/04/09 01:45:04;;;;;;;0.20;0.20;;;4.20;99.90;;;;;;5050442;28;20782;-68
2022/04/09 01:47:31;;;;;;;0.10;0.10;;;4.20;99.90;;;;;;5049448;28;20265;-68
2022/04/09 01:49:58;;;;;;;0.10;0.10;;;4.30;99.90;;;;;;5051355;28;20231;-67
2022/04/09 01:52:25;;;;;;;0.20;0.20;;;4.20;99.90;;;;;;5051312;28;20203;-68
2022/04/09 01:54:52;;;;;;;0.20;0.20;;;4.00;99.90;;;;;;5051265;28;20219;-67
2022/04/09 01:57:20;;;;;;;0.30;0.30;;;4.00;99.90;;;;;;5053051;28;20294;-66
2022/04/09 01:59:47;;;;;;;0.20;0.20;;;4.00;99.90;;;;;;5040058;28;20288;-65
2022/04/09 02:02:14;;;;;;;0.10;0.10;;;4.00;99.90;;;;;;5049129;28;20221;-66
2022/04/09 02:04:41;;;;;;;0.23;0.23;;;4.00;99.90;;;;;;5055596;28;20238;-65
2022/04/09 02:07:08;;;;;;;0.40;0.40;;;3.90;99.90;;;;;;5050801;28;20204;-65
2022/04/09 02:09:35;;;;;;;0.20;0.20;;;4.00;99.90;;;;;;5043440;28;20211;-65
2022/04/09 02:12:02;;;;;;;0.30;0.30;;;4.00;99.90;;;;;;5055130;28;20215;-65
2022/04/09 02:14:30;;;;;;;0.20;0.20;;;4.10;99.90;;;;;;5055352;28;20223;-66
2022/04/09 02:16:57;;;;;;;0.20;0.20;;;4.10;99.90;;;;;;5055088;28;20204;-65
2022/04/09 02:19:24;;;;;;;0.20;0.20;;;4.00;99.90;;;;;;5055829;28;20670;-65
2022/04/09 02:21:50;;;;;;;0.23;0.23;;;4.10;99.90;;;;;;5055316;28;20227;-66
2022/04/09 02:24:17;;;;;;;0.30;0.30;;;4.10;99.90;;;;;;5055672;28;20318;-66
2022/04/09 02:26:44;;;;;;;0.20;0.20;;;4.20;99.90;;;;;;5056047;28;20222;-65
2022/04/09 02:29:12;;;;;;;0.30;0.30;;;4.10;99.90;;;;;;5055880;28;20204;-66
2022/04/09 02:31:40;;;;;;;0.30;0.30;;;4.20;99.90;;;;;;5055727;28;20212;-65
2022/04/09 02:34:08;;;;;;;0.30;0.30;;;4.30;99.90;;;;;;5055422;28;20893;-66
2022/04/09 02:36:36;;;;;;;0.30;0.30;;;4.30;99.90;;;;;;5055775;28;20203;-66
2022/04/09 02:39:03;;;;;;;0.30;0.30;;;4.30;99.90;;;;;;5055813;28;20215;-65
2022/04/09 02:41:30;;;;;;;0.20;0.20;;;4.40;99.90;;;;;;5055541;28;20330;-66
2022/04/09 02:43:57;;;;;;;0.50;0.50;;;4.40;99.90;;;;;;5056057;28;20208;-65
2022/04/09 02:46:25;;;;;;;0.40;0.40;;;4.40;99.90;;;;;;5055307;28;20215;-66
2022/04/09 02:48:53;;;;;;;0.30;0.30;;;4.30;99.90;;;;;;5055334;28;20208;-68
2022/04/09 02:51:20;;;;;;;0.30;0.30;;;4.30;99.90;;;;;;5054979;28;20263;-65
2022/04/09 02:53:47;;;;;;;0.50;0.50;;;4.30;99.90;;;;;;5054622;28;20247;-66
2022/04/09 02:56:13;;;;;;;0.50;0.50;;;4.40;99.90;;;;;;5055092;28;20261;-65
2022/04/09 02:58:40;;;;;;;0.30;0.30;;;4.40;99.90;;;;;;5054884;28;20214;-66
2022/04/09 03:01:08;;;;;;;0.60;0.60;;;4.40;99.90;;;;;;5054690;28;20296;-66
2022/04/09 03:03:35;;;;;;;0.40;0.40;;;4.40;99.90;;;;;;5055136;28;20207;-67
2022/04/09 03:06:03;;;;;;;0.40;0.40;;;4.30;99.90;;;;;;5054875;28;20270;-66
2022/04/09 03:08:30;;;;;;;0.37;0.37;;;4.20;99.90;;;;;;5054729;28;20290;-65
2022/04/09 03:10:57;;;;;;;0.50;0.50;;;4.20;99.90;;;;;;5054511;28;20303;-66
2022/04/09 03:13:23;;;;;;;0.40;0.40;;;4.20;99.90;;;;;;5054572;28;20227;-66
2022/04/09 03:15:50;;;;;;;0.33;0.33;;;4.20;99.90;;;;;;5059278;28;20216;-66
2022/04/09 03:18:17;;;;;;;0.50;0.50;;;4.20;99.90;;;;;;5062919;28;20234;-65
2022/04/09 03:20:44;;;;;;;0.57;0.57;;;4.20;99.90;;;;;;5060141;28;20288;-66
2022/04/09 03:23:12;;;;;;;0.50;0.50;;;4.20;99.90;;;;;;5062127;28;20208;-67
2022/04/09 03:25:39;;;;;;;0.37;0.37;;;4.20;99.90;;;;;;5072751;28;20258;-65
2022/04/09 03:28:06;;;;;;;0.43;0.43;;;4.30;99.90;;;;;;5075037;28;20200;-66
2022/04/09 03:30:33;;;;;;;0.60;0.60;;;4.30;99.90;;;;;;5070114;28;20215;-66
2022/04/09 03:33:00;;;;;;;0.40;0.40;;;4.30;99.90;;;;;;5055487;28;20287;-65
2022/04/09 03:35:27;;;;;;;0.50;0.50;;;4.40;99.90;;;;;;5055416;28;20224;-65
2022/04/09 03:37:56;;;;;;;0.50;0.50;;;4.40;99.90;;;;;;5054400;28;20204;-65
2022/04/09 03:40:24;;;;;;;0.50;0.50;;;4.40;99.90;;;;;;5054636;28;20204;-66
2022/04/09 03:42:51;;;;;;;0.60;0.60;;;4.40;99.90;;;;;;5055007;28;20310;-66
2022/04/09 03:45:18;;;;;;;0.57;0.57;;;4.40;99.90;;;;;;5054107;28;20729;-66
2022/04/09 03:47:46;;;;;;;0.70;0.70;;;4.40;99.90;;;;;;5054059;28;20200;-67
2022/04/09 03:50:13;;;;;;;0.80;0.80;;;4.40;99.90;;;;;;5050506;28;20477;-66
2022/04/09 03:52:39;;;;;;;0.60;0.60;;;4.50;99.90;;;;;;5037432;28;20247;-67
2022/04/09 03:55:08;;;;;;;0.70;0.70;;;4.50;99.90;;;;;;5034209;28;20252;-66
2022/04/09 03:57:36;;;;;;;0.70;0.60;;;4.50;99.90;;;;;;5037016;28;20212;-67
2022/04/09 04:00:04;;;;;;;0.60;0.60;;;4.50;99.90;;;;;;5034483;28;20212;-66
2022/04/09 04:02:31;;;;;;;0.80;0.80;;;4.50;99.90;;;;;;5033504;28;20558;-67
2022/04/09 04:05:02;;;;;;;0.70;0.70;;;4.60;99.90;;;;;;5033329;28;20342;-67
2022/04/09 04:07:29;;;;;;;0.70;0.70;;;4.60;99.90;;;;;;5034482;28;20220;-65
2022/04/09 04:09:56;;;;;;;0.60;0.60;;;4.60;99.90;;;;;;5033585;28;20663;-66
2022/04/09 04:12:24;;;;;;;0.50;0.50;;;4.60;99.90;;;;;;5034401;28;20240;-67
2022/04/09 04:14:52;;;;;;;0.60;0.60;;;4.60;99.90;;;;;;5034046;28;20221;-67
2022/04/09 04:17:19;;;;;;;0.60;0.60;;;4.60;99.90;;;;;;5033784;28;20253;-66
2022/04/09 04:19:46;;;;;;;0.52;0.52;;;4.60;99.90;;;;;;5033681;28;20204;-66
2022/04/09 04:22:13;;;;;;;0.70;0.70;;;4.60;99.90;;;;;;5033300;28;20300;-66
2022/04/09 04:24:40;;;;;;;0.50;0.50;;;4.60;99.90;;;;;;5032837;28;20311;-66
2022/04/09 04:27:07;;;;;;;0.70;0.70;;;4.60;99.90;;;;;;5033576;28;20236;-66
2022/04/09 04:29:35;;;;;;;0.60;0.60;;;4.60;99.90;;;;;;5033801;28;20287;-65
2022/04/09 04:32:04;;;;;;;0.67;0.67;;;4.50;99.90;;;;;;5046493;28;20652;-67
2022/04/09 04:34:31;;;;;;;0.50;0.50;;;4.50;99.90;;;;;;5033729;28;20228;-66
2022/04/09 04:36:58;;;;;;;0.50;0.50;;;4.60;99.90;;;;;;5033393;28;20292;-66
2022/04/09 04:39:25;;;;;;;0.70;0.70;;;4.60;99.90;;;;;;5033325;28;20295;-65
2022/04/09 04:41:52;;;;;;;0.77;0.77;;;4.50;99.90;;;;;;5044869;28;20821;-65
2022/04/09 04:44:18;;;;;;;0.80;0.80;;;4.50;99.90;;;;;;5053136;28;20255;-66
2022/04/09 04:46:45;;;;;;;0.70;0.70;;;4.50;99.90;;;;;;5053086;28;20230;-67
2022/04/09 04:49:13;;;;;;;0.73;0.73;;;4.40;99.90;;;;;;5053038;28;20234;-66
2022/04/09 04:51:40;;;;;;;0.63;0.63;;;4.70;99.90;;;;;;5052766;28;20706;-66
2022/04/09 04:54:07;;;;;;;0.80;0.80;;;4.60;99.90;;;;;;5052602;28;20307;-67
2022/04/09 04:56:34;;;;;;;0.70;0.70;;;4.50;99.90;;;;;;5053102;28;20214;-66
2022/04/09 04:59:01;;;;;;;0.80;0.80;;;4.40;99.90;;;;;;5055115;28;20742;-66
2022/04/09 05:01:28;;;;;;;0.90;0.90;;;4.40;99.90;;;;;;5054191;28;20290;-65
2022/04/09 05:03:55;;;;;;;0.93;0.93;;;4.40;99.90;;;;;;5062349;28;20223;-66
2022/04/09 05:06:23;;;;;;;0.90;0.90;;;4.50;99.90;;;;;;5060393;28;20247;-66
2022/04/09 05:08:50;;;;;;;1.23;1.23;;;4.50;99.90;;;;;;5059377;28;20200;-66
2022/04/09 05:11:17;;;;;;;1.20;1.20;;;4.50;99.90;;;;;;5058860;28;20311;-65
2022/04/09 05:13:44;;;;;;;1.07;1.07;;;4.60;99.90;;;;;;5055883;28;20215;-65
2022/04/09 05:16:11;;;;;;;1.10;1.10;;;4.60;99.90;;;;;;5053901;28;20295;-67
2022/04/09 05:18:38;;;;;;;1.20;1.20;;;4.60;99.90;;;;;;5053439;28;20319;-67
2022/04/09 05:21:04;;;;;;;1.20;1.20;;;4.60;99.90;;;;;;5058401;28;20261;-65
2022/04/09 05:23:33;;;;;;;1.30;1.30;;;4.60;99.90;;;;;;5058582;28;20294;-65
2022/04/09 05:26:00;;;;;;;1.10;1.10;;;4.80;99.90;;;;;;5060099;22;20323;-63
2022/04/09 05:28:27;;;;;;;1.40;1.30;;;4.70;99.90;;;;;;5051265;28;20709;-65
2022/04/09 05:30:54;;;;;;;1.40;1.40;;;4.80;99.90;;;;;;5051524;28;20257;-64
2022/04/09 05:33:21;;;;;;;1.23;1.23;;;4.80;99.90;;;;;;5050846;28;20214;-65
2022/04/09 05:35:48;;;;;;;1.30;1.30;;;4.90;99.90;;;;;;5050519;28;20259;-64
2022/04/09 05:38:15;;;;;;;1.33;1.33;;;4.90;99.90;;;;;;5052791;28;20267;-65
2022/04/09 05:40:43;;;;;;;1.40;1.40;;;4.80;99.90;;;;;;5052536;28;20675;-65
2022/04/09 05:43:10;;;;;;;1.20;1.20;;;4.80;99.90;;;;;;5051463;28;20218;-63
2022/04/09 05:45:37;;;;;;;1.30;1.30;;;4.90;99.90;;;;;;5051480;28;20325;-62
2022/04/09 05:48:05;;;;;;;1.50;1.40;;;4.90;99.90;;;;;;5050377;28;20678;-64
2022/04/09 05:50:32;;;;;;;1.10;1.10;;;4.90;99.90;;;;;;5031900;28;20612;-62
2022/04/09 05:52:59;;;;;;;1.13;1.13;;;5.00;99.90;;;;;;5031531;28;20247;-65
2022/04/09 05:55:26;;;;;;;1.30;1.30;;;5.00;99.90;;;;;;5031452;28;20221;-66
2022/04/09 05:57:54;;;;;;;2.00;1.90;;;5.10;99.90;;;;;;5041731;28;20673;-66
2022/04/09 06:00:22;;;;;;;1.80;1.70;;;5.00;99.90;;;;;;5055975;28;20208;-65
2022/04/09 06:02:49;;;;;;;2.30;2.20;;;5.10;99.90;;;;;;5061394;28;20295;-65
2022/04/09 06:05:16;;;;;;;2.10;2.00;;;5.10;99.90;;;;;;5062174;28;20227;-65
2022/04/09 06:07:43;;;;;;;1.97;1.87;;;5.10;99.90;;;;;;5061167;28;20214;-63
2022/04/09 06:10:13;;;;;;;1.93;1.83;;;5.20;99.90;;;;;;5063006;28;20200;-66
2022/04/09 06:12:41;;;;;;;2.87;2.77;;;5.20;99.90;;;;;;5060864;28;20210;-64
2022/04/09 06:15:10;;;;;;;2.30;2.20;;;5.30;99.90;;;;;;5059072;28;20224;-66
2022/04/09 06:17:39;;;;;;;2.00;1.90;;;5.40;99.90;;;;;;5059275;28;20235;-65
2022/04/09 06:20:07;;;;;;;1.80;1.70;;;5.30;99.90;;;;;;5053385;28;20293;-64
2022/04/09 06:22:34;;;;;;;2.10;2.00;;;5.40;99.90;;;;;;5054783;28;20250;-63
2022/04/09 06:25:01;;;;;;;2.20;2.10;;;5.50;99.90;;;;;;5054483;28;20262;-66
2022/04/09 06:27:28;;;;;;;2.33;2.20;;;5.60;99.90;;;;;;5050551;28;20204;-64
2022/04/09 06:29:55;;;;;;;2.13;2.03;;;5.70;99.90;;;;;;5048805;28;20235;-64
2022/04/09 06:32:23;;;;;;;2.20;2.10;;;5.70;99.90;;;;;;5059649;28;20228;-63
2022/04/09 06:34:50;;;;;;;2.10;2.00;;;5.80;99.90;;;;;;5065886;28;20224;-64
2022/04/09 06:37:17;;;;;;;2.10;2.00;;;5.80;99.90;;;;;;5065105;28;20239;-64
2022/04/09 06:39:44;;;;;;;2.00;1.90;;;5.80;99.90;;;;;;5057613;28;20286;-63
2022/04/09 06:42:11;;;;;;;2.33;2.00;;;5.70;99.90;;;;;;5054834;28;20278;-65
2022/04/09 06:44:38;;;;;;;2.07;1.97;;;5.80;99.90;;;;;;5056669;28;20224;-64
2022/04/09 06:47:08;;;;;;;2.17;2.07;;;5.60;99.90;;;;;;5032185;28;20260;-65
2022/04/09 06:49:37;;;;;;;1.80;1.70;;;5.60;99.90;;;;;;5046975;28;20243;-65
2022/04/09 06:52:05;;;;;;;2.33;1.80;;;5.60;99.90;;;;;;5055495;28;20561;-64
2022/04/09 06:54:32;;;;;;;1.77;1.70;;;5.60;99.90;;;;;;5054168;28;20228;-65
2022/04/09 06:56:59;;;;;;;2.00;1.90;;;5.60;99.90;;;;;;5054934;28;20666;-64
2022/04/09 06:59:26;;;;;;;1.50;1.50;;;5.70;99.90;;;;;;5057819;28;20652;-64
2022/04/09 07:01:53;;;;;;;2.00;1.90;;;5.60;99.90;;;;;;5065445;28;20256;-63
2022/04/09 07:04:20;;;;;;;2.20;2.10;;;5.70;99.90;;;;;;5063553;28;20266;-63
2022/04/09 07:06:48;;;;;;;2.13;2.03;;;5.80;99.90;;;;;;5062039;28;20311;-63
2022/04/09 07:09:15;;;;;;;2.20;2.10;;;5.70;99.90;;;;;;5057310;28;20286;-65
2022/04/09 07:11:42;;;;;;;2.10;2.00;;;5.80;99.90;;;;;;5053295;28;20204;-62
2022/04/09 07:14:09;;;;;;;1.90;1.80;;;5.80;99.90;;;;;;5053909;28;20295;-63
2022/04/09 07:16:35;;;;;;;1.97;1.87;;;5.80;99.90;;;;;;5054907;28;20267;-63
2022/04/09 07:19:03;;;;;;;2.00;1.90;;;5.90;99.90;;;;;;5054148;28;20206;-65
2022/04/09 07:21:29;;;;;;;2.20;2.10;;;6.00;99.90;;;;;;5054565;28;20232;-65
2022/04/09 07:23:58;;;;;;;1.80;1.70;;;5.90;99.90;;;;;;5054312;28;20636;-64
2022/04/09 07:26:25;;;;;;;2.07;1.97;;;6.00;99.90;;;;;;5053855;28;20234;-64
2022/04/09 07:28:53;;;;;;;1.97;1.87;;;6.10;99.90;;;;;;5054520;28;20215;-64
2022/04/09 07:31:20;;;;;;;1.87;1.77;;;6.10;99.90;;;;;;5054352;28;20212;-63
2022/04/09 07:33:47;;;;;;;2.20;2.10;;;6.20;99.90;;;;;;5054768;28;20199;-62
2022/04/09 07:36:14;;;;;;;2.50;2.40;;;6.20;99.90;;;;;;5050986;28;20251;-62
2022/04/09 07:38:41;;;;;;;2.20;2.10;;;6.20;99.90;;;;;;5047285;28;20223;-63
2022/04/09 07:41:09;;;;;;;2.20;2.10;;;6.20;99.90;;;;;;5042124;28;20204;-62
2022/04/09 07:43:36;;;;;;;2.07;1.97;;;6.20;99.90;;;;;;5042264;28;20204;-63
2022/04/09 07:46:03;;;;;;;1.93;1.83;;;6.30;99.90;;;;;;5054193;28;20318;-62
2022/04/09 07:48:30;;;;;;;2.20;2.10;;;6.30;99.90;;;;;;5039834;28;20223;-64
2022/04/09 07:50:57;;;;;;;2.00;1.90;;;6.30;99.90;;;;;;5045300;28;20291;-65
2022/04/09 07:53:24;;;;;;;2.20;2.10;;;6.20;99.90;;;;;;5053492;28;20250;-63
2022/04/09 07:55:51;;;;;;;2.10;2.00;;;6.30;99.90;;;;;;5055134;28;20259;-63
2022/04/09 07:58:19;;;;;;;2.43;2.30;;;6.40;99.90;;;;;;5048884;28;20299;-64
2022/04/09 08:00:46;;;;;;;2.00;1.90;;;6.50;99.90;;;;;;5053941;28;20228;-62
2022/04/09 08:03:14;;;;;;;1.97;1.87;;;6.70;99.90;;;;;;5066552;28;20238;-63
2022/04/09 08:05:41;;;;;;;1.90;1.80;;;6.80;99.90;;;;;;5067081;28;20224;-63
2022/04/09 08:08:08;;;;;;;2.00;1.90;;;6.90;99.90;;;;;;5056023;28;20713;-64
2022/04/09 08:10:35;;;;;;;1.90;1.80;;;6.90;99.90;;;;;;5053686;28;20216;-64
2022/04/09 08:13:02;;;;;;;2.10;2.00;;;7.10;99.90;;;;;;5053372;28;20204;-64
2022/04/09 08:15:31;;;;;;;2.00;1.90;;;7.10;99.90;;;;;;5052560;28;20310;-64
2022/04/09 08:17:58;;;;;;;1.87;1.77;;;7.10;99.90;;;;;;5053046;28;20553;-64
2022/04/09 08:20:26;;;;;;;2.17;2.07;;;7.20;99.90;;;;;;5052803;28;20212;-64
2022/04/09 08:22:52;;;;;;;2.07;1.97;;;7.20;99.90;;;;;;5053737;28;20215;-64
2022/04/09 08:25:19;;;;;;;2.00;1.90;;;7.20;99.90;;;;;;5054181;28;20327;-62
2022/04/09 08:27:49;;;;;;;2.20;2.10;;;7.20;99.90;;;;;;5054094;28;20226;-63
2022/04/09 08:30:16;;;;;;;2.50;2.40;;;7.10;99.90;;;;;;5054893;28;20200;-63
2022/04/09 08:32:45;;;;;;;2.23;2.13;;;7.00;99.90;;;;;;5053678;28;20214;-64
2022/04/09 08:35:12;;;;;;;2.10;2.00;;;7.10;99.90;;;;;;5054867;28;20256;-64
2022/04/09 08:37:41;;;;;;;2.30;2.20;;;7.10;99.90;;;;;;5059591;28;20196;-63
2022/04/09 08:40:13;;;;;;;2.50;2.40;;;7.10;99.90;;;;;;5061841;28;20272;-63
2022/04/09 08:42:40;;;;;;;2.40;2.30;;;7.10;99.90;;;;;;5057866;28;20262;-63
2022/04/09 08:45:08;;;;;;;2.50;2.40;;;7.20;99.90;;;;;;5058393;28;20251;-64
2022/04/09 08:47:36;;;;;;;2.70;2.60;;;7.20;99.90;;;;;;5057293;28;20324;-64
2022/04/09 08:50:06;;;;;;;2.90;2.77;;;7.30;99.90;;;;;;5053921;28;20550;-65
2022/04/09 08:52:34;;;;;;;2.40;2.30;;;7.20;99.90;;;;;;5054076;28;20274;-64
2022/04/09 08:55:03;;;;;;;2.40;2.30;;;7.30;99.90;;;;;;5053147;28;20239;-64
2022/04/09 08:57:30;;;;;;;2.30;2.20;;;7.20;99.90;;;;;;5053419;28;20212;-64
2022/04/09 08:59:57;;;;;;;2.10;2.00;;;7.30;99.90;;;;;;5053662;28;20234;-63
2022/04/09 09:02:25;;;;;;;2.27;2.17;;;7.30;99.90;;;;;;5052523;28;20262;-65
2022/04/09 09:04:52;;;;;;;1.90;1.80;;;7.30;99.90;;;;;;5052707;28;20310;-64
2022/04/09 09:07:24;;;;;;;2.20;2.10;;;7.40;99.90;;;;;;5049978;28;20706;-64
2022/04/09 09:09:52;;;;;;;2.20;2.10;;;7.30;99.90;;;;;;5051641;28;20274;-66
2022/04/09 09:12:30;;;;;;;2.20;2.10;;;7.40;99.90;;;;;;5052961;28;20218;-64
2022/04/09 09:14:58;;;;;;;2.17;2.07;;;7.40;99.90;;;;;;5051053;28;20220;-65
2022/04/09 09:17:29;;;;;;;2.13;2.00;;;7.50;99.90;;;;;;5044199;28;20200;-64
2022/04/09 09:19:56;;;;;;;2.00;1.90;;;7.60;99.90;;;;;;5041508;28;20277;-64
2022/04/09 09:22:36;;;;;;;1.90;1.80;;;7.70;99.90;;;;;;5042338;28;20290;-64
2022/04/09 09:25:05;;;;;;;1.60;1.60;;;7.80;99.90;;;;;;5050063;28;20235;-64
2022/04/09 09:27:32;;;;;;;2.10;2.00;;;8.00;99.90;;;;;;5044852;28;20220;-65
2022/04/09 09:29:59;;;;;;;1.93;1.83;;;8.30;99.90;;;;;;5046825;28;20207;-65
2022/04/09 09:32:28;;;;;;;1.90;1.80;;;8.30;99.90;;;;;;5044729;28;20278;-64
2022/04/09 09:34:56;;;;;;;2.10;2.00;;;8.40;99.90;;;;;;5045486;28;20241;-63
2022/04/09 09:37:26;;;;;;;1.80;1.70;;;8.40;99.90;;;;;;5049698;28;20605;-64
2022/04/09 09:39:57;;;;;;;1.80;1.70;;;8.30;99.90;;;;;;5048280;28;20247;-63
2022/04/09 09:42:25;;;;;;;2.00;1.90;;;8.20;99.90;;;;;;5046474;28;20630;-63
2022/04/09 09:44:52;;;;;;;1.95;1.85;;;8.20;99.90;;;;;;5047355;28;20227;-63
2022/04/09 09:47:19;;;;;;;1.90;1.80;;;7.90;99.90;;;;;;5045533;28;20216;-64
2022/04/09 09:49:55;;;;;;;1.97;1.87;;;7.60;99.90;;;;;;5043897;28;20453;-62
2022/04/09 09:52:28;;;;;;;1.90;1.80;;;7.30;99.90;;;;;;5046658;28;20294;-63
2022/04/09 09:54:56;;;;;;;1.97;1.87;;;7.40;99.90;;;;;;5046994;28;20288;-63
2022/04/09 09:57:26;;;;;;;1.70;1.60;;;7.60;99.90;;;;;;5045636;28;20188;-65
2022/04/09 09:59:55;;;;;;;1.80;1.70;;;7.90;99.90;;;;;;5044601;28;20248;-65
2022/04/09 10:02:23;;;;;;;1.90;1.80;;;8.10;99.90;;;;;;5045519;28;20230;-64
2022/04/09 10:04:51;;;;;;;1.77;1.67;;;8.30;99.90;;;;;;5045112;28;20289;-63
2022/04/09 10:07:19;;;;;;;1.47;1.47;;;8.00;99.90;;;;;;5048011;28;20311;-64
2022/04/09 10:09:49;;;;;;;1.70;1.60;;;8.00;99.90;;;;;;5048383;28;20205;-63
2022/04/09 10:12:19;;;;;;;1.70;1.60;;;8.10;99.90;;;;;;5033584;28;20196;-65
2022/04/09 10:14:50;;;;;;;1.63;1.53;;;8.20;99.90;;;;;;5036050;28;20270;-64
2022/04/09 10:17:19;;;;;;;1.60;1.50;;;8.10;99.90;;;;;;5042687;28;20619;-64
2022/04/09 10:19:54;;;;;;;1.57;1.47;;;8.20;99.90;;;;;;5046625;28;20215;-62
2022/04/09 10:22:23;;;;;;;1.90;1.80;;;8.10;99.90;;;;;;5046018;28;20727;-64
2022/04/09 10:24:52;;;;;;;1.90;1.80;;;8.20;99.90;;;;;;5055031;28;20234;-63
2022/04/09 10:27:35;;;;;;;1.87;1.77;;;8.50;99.90;;;;;;5072426;28;20231;-64
2022/04/09 10:30:03;;;;;;;1.80;1.70;;;8.80;99.90;;;;;;5037675;28;20218;-64
2022/04/09 10:32:43;;;;;;;4.37;1.80;;;8.80;99.90;;;;;;5057175;28;20650;-66
2022/04/09 10:35:30;;;;;;;1.70;1.60;;;8.80;99.90;;;;;;5056559;28;20591;-63
2022/04/09 10:38:20;;;;;;;2.00;1.90;;;8.80;99.90;;;;;;5067969;28;20286;-64
2022/04/09 10:41:31;;;;;;;1.80;1.70;;;8.80;99.90;;;;;;5049006;28;20228;-64
2022/04/09 10:44:03;;;;;;;1.83;1.50;;;8.90;99.90;;;;;;5055172;28;20607;-62
2022/04/09 10:46:33;;;;;;;1.57;1.47;;;9.10;99.90;;;;;;5051411;28;20264;-67
2022/04/09 10:49:19;;;;;;;1.60;1.50;;;9.30;99.90;;;;;;5049706;28;20204;-64
2022/04/09 10:52:08;;;;;;;1.70;1.60;;;9.40;99.90;;;;;;5061505;28;20223;-64
2022/04/09 10:54:36;;;;;;;1.57;1.47;;;9.30;99.90;;;;;;5065391;28;20222;-64
2022/04/09 10:57:11;;;;;;;1.50;1.40;;;9.20;99.90;;;;;;5061254;28;20249;-62
2022/04/09 10:59:41;;;;;;;1.80;1.70;;;9.30;99.90;;;;;;5056688;28;20200;-64
2022/04/09 11:02:09;;;;;;;2.00;1.80;;;9.60;99.90;;;;;;5062910;28;20215;-62
2022/04/09 11:04:45;;;;;;;1.43;1.40;;;9.70;99.90;;;;;;5060017;28;20224;-64
2022/04/09 11:07:15;;;;;;;1.20;1.20;;;9.20;99.90;;;;;;5060837;28;20326;-65
2022/04/09 11:09:57;;;;;;;1.60;1.50;;;9.10;99.90;;;;;;5061220;28;20200;-64
2022/04/09 11:12:27;;;;;;;1.60;1.50;;;9.10;99.90;;;;;;5060207;28;20261;-65
2022/04/09 11:14:57;;;;;;;1.50;1.40;;;9.20;99.90;;;;;;5055938;28;20232;-63
2022/04/09 11:17:27;;;;;;;1.50;1.40;;;9.20;99.90;;;;;;5053454;28;20200;-63
2022/04/09 11:19:54;;;;;;;1.87;1.57;;;9.00;99.90;;;;;;5061653;28;20287;-65
2022/04/09 11:22:22;;;;;;;1.50;1.40;;;9.10;99.90;;;;;;5067933;28;20204;-63
2022/04/09 11:24:49;;;;;;;1.63;1.40;;;9.40;99.90;;;;;;5064763;28;20231;-63
2022/04/09 11:27:16;;;;;;;1.37;1.27;;;9.50;99.90;;;;;;5060160;28;20307;-64
2022/04/09 11:29:44;;;;;;;1.23;1.20;;;9.50;99.90;;;;;;5054979;28;20544;-64
2022/04/09 11:32:20;;;;;;;1.40;1.30;;;9.80;99.90;;;;;;5053051;28;20204;-63
2022/04/09 11:34:48;;;;;;;1.47;1.37;;;10.10;99.90;;;;;;5042567;28;20223;-65
2022/04/09 11:37:15;;;;;;;1.23;1.23;;;10.30;99.90;;;;;;5059881;28;20234;-64
2022/04/09 11:39:43;;;;;;;1.30;1.20;;;10.20;99.90;;;;;;5050230;28;20323;-65
2022/04/09 11:42:11;;;;;;;1.30;1.20;;;10.10;99.90;;;;;;5058982;28;20662;-64
2022/04/09 11:44:39;;;;;;;1.50;1.40;;;9.90;99.90;;;;;;5056388;28;20224;-65
2022/04/09 11:47:12;;;;;;;1.23;1.23;;;9.80;99.90;;;;;;5063266;28;20283;-64
2022/04/09 11:49:41;;;;;;;1.33;1.23;;;9.80;99.90;;;;;;5060160;28;20670;-63
2022/04/09 11:52:09;;;;;;;1.40;1.30;;;9.70;99.90;;;;;;5055784;28;20215;-65
2022/04/09 11:54:38;;;;;;;1.60;1.50;;;9.50;99.90;;;;;;5055415;28;20231;-64
2022/04/09 11:57:11;;;;;;;1.30;1.20;;;9.50;99.90;;;;;;5053595;28;20210;-64
2022/04/09 11:59:38;;;;;;;1.50;1.40;;;9.40;99.90;;;;;;5053594;28;20223;-65
2022/04/09 12:02:16;;;;;;;1.60;1.50;;;9.60;99.90;;;;;;5058289;28;20204;-65
2022/04/09 12:04:44;;;;;;;1.30;1.20;;;9.60;99.90;;;;;;5055460;28;20791;-64
2022/04/09 12:07:12;;;;;;;1.43;1.33;;;9.80;99.90;;;;;;5056878;28;20220;-64
2022/04/09 12:09:39;;;;;;;1.27;1.17;;;9.70;99.90;;;;;;5057033;28;20246;-65
2022/04/09 12:12:08;;;;;;;1.20;1.20;;;10.00;99.90;;;;;;5039130;28;20208;-65
2022/04/09 12:14:35;;;;;;;1.13;1.13;;;10.50;99.90;;;;;;5035181;28;20250;-63
2022/04/09 12:17:11;;;;;;;1.20;1.10;;;11.00;99.90;;;;;;5035388;28;20290;-64
2022/04/09 12:19:42;;;;;;;1.23;1.20;;;11.60;99.90;;;;;;5051002;28;20199;-65
2022/04/09 12:22:17;;;;;;;1.00;1.00;;;11.80;99.90;;;;;;5038752;28;20212;-63
2022/04/09 12:24:49;;;;;;;1.27;1.20;;;11.60;99.90;;;;;;5032810;28;20253;-63
2022/04/09 12:27:16;;;;;;;1.10;1.10;;;11.80;99.90;;;;;;5047024;28;20315;-64
2022/04/09 12:29:58;;;;;;;0.87;0.87;;;11.80;99.90;;;;;;5046142;28;20262;-63
2022/04/09 12:32:25;;;;;;;0.90;0.90;;;11.70;99.90;;;;;;5050285;28;20749;-62
2022/04/09 12:34:57;;;;;;;1.20;1.10;;;11.50;99.90;;;;;;5048913;28;20270;-62
2022/04/09 12:37:27;;;;;;;0.90;0.90;;;11.50;99.90;;;;;;5050961;28;20287;-63
2022/04/09 12:40:14;;;;;;;0.90;0.90;;;11.80;99.90;;;;;;5052546;28;20245;-63
2022/04/09 12:42:41;;;;;;;1.00;1.00;;;11.70;99.90;;;;;;5044776;28;20238;-62
2022/04/09 12:45:13;;;;;;;1.10;1.10;;;11.90;99.90;;;;;;5055602;28;20224;-64
2022/04/09 12:47:40;;;;;;;1.40;1.30;;;11.90;99.90;;;;;;5048032;28;20715;-64
2022/04/09 12:50:19;;;;;;;1.40;1.30;;;11.70;99.90;;;;;;5055951;28;20290;-64
2022/04/09 12:52:47;;;;;;;0.97;0.97;;;11.40;99.90;;;;;;5062353;28;20235;-65
2022/04/09 12:55:22;;;;;;;1.10;1.10;;;10.90;99.90;;;;;;5040960;28;20322;-65
2022/04/09 12:57:49;;;;;;;1.40;1.30;;;10.70;99.90;;;;;;5048477;28;20678;-63
2022/04/09 13:00:17;;;;;;;1.10;1.10;;;10.50;99.90;;;;;;5047842;28;20227;-62
2022/04/09 13:02:45;;;;;;;1.37;1.27;;;10.40;99.90;;;;;;5052686;28;20480;-64